createdAt,value
2018-12-03T00:05:03.533Z,12.40
2018-12-03T00:07:50.785Z,12.40
2018-12-03T00:10:37.949Z,12.40
2018-12-03T00:13:25.129Z,12.40
2018-12-03T00:16:12.271Z,12.30
2018-12-03T00:18:59.450Z,12.40
2018-12-03T00:21:46.594Z,12.40
2018-12-03T00:24:33.802Z,12.40
2018-12-03T00:27:20.954Z,12.40
2018-12-03T00:30:08.109Z,12.60
2018-12-03T00:32:55.573Z,12.30
2018-12-03T00:35:42.830Z,12.40
2018-12-03T00:38:29.972Z,12.40
2018-12-03T00:41:17.137Z,12.40
2018-12-03T00:44:04.457Z,12.30
2018-12-03T00:46:51.664Z,12.40
2018-12-03T00:49:38.858Z,12.40
2018-12-03T00:52:26.025Z,12.30
2018-12-03T00:55:13.202Z,12.30
2018-12-03T00:58:00.377Z,12.40
2018-12-03T01:00:47.682Z,12.40
2018-12-03T01:03:34.892Z,12.40
2018-12-03T01:06:22.057Z,12.50
2018-12-03T01:09:09.205Z,12.50
2018-12-03T01:11:56.363Z,12.60
2018-12-03T01:14:43.535Z,12.50
2018-12-03T01:20:23.673Z,12.60
2018-12-03T01:23:24.738Z,12.50
2018-12-03T01:25:59.964Z,12.60
2018-12-03T01:28:47.131Z,12.60
2018-12-03T01:31:34.330Z,12.30
2018-12-03T01:34:21.494Z,12.70
2018-12-03T01:37:08.661Z,12.60
2018-12-03T01:39:55.822Z,12.70
2018-12-03T01:42:43.315Z,12.80
2018-12-03T01:45:30.458Z,12.20
2018-12-03T01:48:17.954Z,12.60
2018-12-03T01:51:05.097Z,12.60
2018-12-03T01:53:52.460Z,12.70
2018-12-03T01:56:41.303Z,12.50
2018-12-03T01:59:28.462Z,12.40
2018-12-03T02:02:15.596Z,12.40
2018-12-03T02:05:02.841Z,12.30
2018-12-03T02:07:50.054Z,12.20
2018-12-03T02:13:29.932Z,12.40
2018-12-03T02:16:17.096Z,12.50
2018-12-03T02:19:04.306Z,12.50
2018-12-03T02:21:51.544Z,12.50
2018-12-03T02:24:38.690Z,12.30
2018-12-03T02:27:25.849Z,12.30
2018-12-03T02:30:13.083Z,12.40
2018-12-03T02:33:00.238Z,12.50
2018-12-03T02:35:47.414Z,12.50
2018-12-03T02:38:34.572Z,12.40
2018-12-03T02:41:21.817Z,12.50
2018-12-03T02:44:08.967Z,12.50
2018-12-03T02:46:56.131Z,12.40
2018-12-03T02:49:43.274Z,12.30
2018-12-03T02:52:30.469Z,12.30
2018-12-03T02:55:17.746Z,12.10
2018-12-03T02:58:04.916Z,12.00
2018-12-03T03:00:52.422Z,11.80
2018-12-03T03:03:39.589Z,11.80
2018-12-03T03:06:26.845Z,11.80
2018-12-03T03:09:14.004Z,11.80
2018-12-03T03:12:01.145Z,11.70
2018-12-03T03:14:48.309Z,11.80
2018-12-03T03:17:35.445Z,11.80
2018-12-03T03:20:22.601Z,12.00
2018-12-03T03:23:09.746Z,12.10
2018-12-03T03:25:56.910Z,12.20
2018-12-03T03:28:44.067Z,12.20
2018-12-03T03:31:31.241Z,12.20
2018-12-03T03:34:18.383Z,12.30
2018-12-03T03:37:05.617Z,12.20
2018-12-03T03:39:52.759Z,12.10
2018-12-03T03:42:39.999Z,12.20
2018-12-03T03:45:27.142Z,12.20
2018-12-03T03:48:14.305Z,12.40
2018-12-03T03:51:01.452Z,12.40
2018-12-03T03:53:48.602Z,12.50
2018-12-03T03:56:35.815Z,12.60
2018-12-03T03:59:23.007Z,12.70
2018-12-03T04:02:10.150Z,12.60
2018-12-03T04:04:57.339Z,12.70
2018-12-03T04:07:44.486Z,12.60
2018-12-03T04:10:31.654Z,12.60
2018-12-03T04:13:18.816Z,12.60
2018-12-03T04:16:06.066Z,12.50
2018-12-03T04:18:53.310Z,12.30
2018-12-03T04:21:40.477Z,12.10
2018-12-03T04:24:27.622Z,11.60
2018-12-03T04:27:14.938Z,11.50
2018-12-03T04:30:02.225Z,11.30
2018-12-03T04:32:49.462Z,11.40
2018-12-03T04:35:36.650Z,11.30
2018-12-03T04:38:23.793Z,11.30
2018-12-03T04:41:10.962Z,11.30
2018-12-03T04:44:00.002Z,11.20
2018-12-03T04:46:47.190Z,11.30
2018-12-03T04:49:34.438Z,11.20
2018-12-03T04:52:22.066Z,11.20
2018-12-03T04:55:09.597Z,11.30
2018-12-03T04:57:56.806Z,11.40
2018-12-03T05:00:43.954Z,11.60
2018-12-03T05:03:31.252Z,11.70
2018-12-03T05:06:18.537Z,11.80
2018-12-03T05:09:06.181Z,11.80
2018-12-03T05:11:53.325Z,11.80
2018-12-03T05:14:40.488Z,11.80
2018-12-03T05:17:27.719Z,11.80
2018-12-03T05:20:14.917Z,11.90
2018-12-03T05:23:02.127Z,12.00
2018-12-03T05:25:49.396Z,12.00
2018-12-03T05:28:36.537Z,12.00
2018-12-03T05:31:23.825Z,12.00
2018-12-03T05:34:10.965Z,12.10
2018-12-03T05:36:58.125Z,12.10
2018-12-03T05:39:45.261Z,12.10
2018-12-03T05:42:32.552Z,12.10
2018-12-03T05:45:19.797Z,12.10
2018-12-03T05:48:06.968Z,12.00
2018-12-03T05:50:54.200Z,11.90
2018-12-03T05:53:41.361Z,11.90
2018-12-03T05:56:28.539Z,11.90
2018-12-03T05:59:15.830Z,11.90
2018-12-03T06:02:03.049Z,11.90
2018-12-03T06:04:50.248Z,11.90
2018-12-03T06:07:37.384Z,12.00
2018-12-03T06:10:24.552Z,11.90
2018-12-03T06:13:12.157Z,12.00
2018-12-03T06:15:59.485Z,12.10
2018-12-03T06:18:46.664Z,12.10
2018-12-03T06:21:33.798Z,12.10
2018-12-03T06:24:21.248Z,12.00
2018-12-03T06:27:08.391Z,12.00
2018-12-03T06:29:55.552Z,12.00
2018-12-03T06:32:42.773Z,12.00
2018-12-03T06:35:29.929Z,12.00
2018-12-03T06:38:17.101Z,12.00
2018-12-03T06:41:04.418Z,12.10
2018-12-03T06:43:51.556Z,12.00
2018-12-03T06:46:38.723Z,12.10
2018-12-03T06:49:25.887Z,12.10
2018-12-03T06:52:13.136Z,12.00
2018-12-03T06:55:00.624Z,12.00
2018-12-03T06:57:47.809Z,12.00
2018-12-03T07:00:34.936Z,11.80
2018-12-03T07:03:22.097Z,11.70
2018-12-03T07:06:09.232Z,11.80
2018-12-03T07:08:56.420Z,11.80
2018-12-03T07:11:43.561Z,11.80
2018-12-03T07:14:31.149Z,11.80
2018-12-03T07:17:18.386Z,11.80
2018-12-03T07:20:26.862Z,11.80
2018-12-03T07:23:14.021Z,11.90
2018-12-03T07:26:01.297Z,11.90
2018-12-03T07:28:48.446Z,11.80
2018-12-03T07:31:35.605Z,11.80
2018-12-03T07:34:22.746Z,11.90
2018-12-03T07:37:09.899Z,11.80
2018-12-03T07:39:57.070Z,11.80
2018-12-03T07:42:44.230Z,11.80
2018-12-03T07:45:31.399Z,11.90
2018-12-03T07:48:18.601Z,11.90
2018-12-03T07:51:05.826Z,11.90
2018-12-03T07:53:53.077Z,11.90
2018-12-03T07:56:40.237Z,12.00
2018-12-03T07:59:27.405Z,12.00
2018-12-03T08:02:14.654Z,12.00
2018-12-03T08:05:01.821Z,12.00
2018-12-03T08:07:49.326Z,11.90
2018-12-03T08:10:36.604Z,11.80
2018-12-03T08:13:23.757Z,11.70
2018-12-03T08:16:10.933Z,11.70
2018-12-03T08:18:58.075Z,11.70
2018-12-03T08:21:45.265Z,11.70
2018-12-03T08:24:32.536Z,11.70
2018-12-03T08:27:20.149Z,11.70
2018-12-03T08:33:13.026Z,12.00
2018-12-03T08:35:53.392Z,12.10
2018-12-03T08:38:33.520Z,12.10
2018-12-03T08:41:14.349Z,12.10
2018-12-03T08:43:54.722Z,12.10
2018-12-03T08:46:34.742Z,12.10
2018-12-03T08:49:14.746Z,12.10
2018-12-03T08:51:55.431Z,12.10
2018-12-03T08:54:35.530Z,12.20
2018-12-03T08:57:15.647Z,12.20
2018-12-03T08:59:55.697Z,11.70
2018-12-03T09:02:35.945Z,11.30
2018-12-03T09:05:16.615Z,11.20
2018-12-03T09:07:56.995Z,11.10
2018-12-03T09:10:37.934Z,11.10
2018-12-03T09:13:18.182Z,11.20
2018-12-03T09:15:58.830Z,11.20
2018-12-03T09:18:39.692Z,11.20
2018-12-03T09:21:19.746Z,11.30
2018-12-03T09:23:59.617Z,11.30
2018-12-03T09:26:39.614Z,11.40
2018-12-03T09:29:19.601Z,10.70
2018-12-03T09:31:59.913Z,11.40
2018-12-03T09:34:39.966Z,11.50
2018-12-03T09:37:20.109Z,11.50
2018-12-03T09:40:00.268Z,11.50
2018-12-03T09:42:41.160Z,11.50
2018-12-03T09:45:21.614Z,11.70
2018-12-03T09:48:01.982Z,11.80
2018-12-03T09:50:42.101Z,11.70
2018-12-03T09:53:22.320Z,11.70
2018-12-03T09:56:02.221Z,11.80
2018-12-03T09:58:42.508Z,11.80
2018-12-03T10:01:22.849Z,11.80
2018-12-03T10:04:03.521Z,11.80
2018-12-03T10:06:44.408Z,11.80
2018-12-03T10:09:24.831Z,11.80
2018-12-03T10:12:04.884Z,11.80
2018-12-03T10:14:44.859Z,12.00
2018-12-03T10:17:25.921Z,12.20
2018-12-03T10:20:06.091Z,12.30
2018-12-03T10:22:46.365Z,12.40
2018-12-03T10:25:26.908Z,12.30
2018-12-03T10:28:07.250Z,12.30
2018-12-03T10:30:47.531Z,12.40
2018-12-03T10:33:27.757Z,12.50
2018-12-03T10:36:07.923Z,12.60
2018-12-03T10:38:48.947Z,12.70
2018-12-03T10:41:28.923Z,12.60
2018-12-03T10:44:08.997Z,12.50
2018-12-03T10:46:49.165Z,12.60
2018-12-03T10:49:29.925Z,12.50
2018-12-03T10:52:10.017Z,11.70
2018-12-03T10:54:50.410Z,13.00
2018-12-03T10:57:31.902Z,12.90
2018-12-03T11:00:14.270Z,12.80
2018-12-03T11:02:56.947Z,12.70
2018-12-03T11:05:57.083Z,12.90
2018-12-03T11:08:37.394Z,12.90
2018-12-03T11:11:18.157Z,12.90
2018-12-03T11:13:59.570Z,12.90
2018-12-03T11:16:39.736Z,13.00
2018-12-03T11:19:20.460Z,12.90
2018-12-03T11:22:00.741Z,13.00
2018-12-03T11:24:40.633Z,13.00
2018-12-03T11:27:20.943Z,13.10
2018-12-03T11:30:01.619Z,12.80
2018-12-03T11:32:42.401Z,12.70
2018-12-03T11:35:22.961Z,12.60
2018-12-03T11:38:03.235Z,12.50
2018-12-03T11:40:44.097Z,12.60
2018-12-03T11:43:24.352Z,12.60
2018-12-03T11:46:05.272Z,12.50
2018-12-03T11:48:45.910Z,12.20
2018-12-03T11:51:27.003Z,12.00
2018-12-03T11:54:07.274Z,12.00
2018-12-03T11:56:47.487Z,11.90
2018-12-03T11:59:27.501Z,11.90
2018-12-03T12:02:07.882Z,12.10
2018-12-03T12:04:48.015Z,12.50
2018-12-03T12:07:28.866Z,12.70
2018-12-03T12:10:09.668Z,12.70
2018-12-03T12:12:49.957Z,12.70
2018-12-03T12:15:30.435Z,12.60
2018-12-03T12:18:11.310Z,12.50
2018-12-03T12:20:52.398Z,12.40
2018-12-03T12:23:32.652Z,12.40
2018-12-03T12:26:12.871Z,11.50
2018-12-03T12:28:52.907Z,12.50
2018-12-03T12:31:33.207Z,12.50
2018-12-03T12:34:13.431Z,12.50
2018-12-03T12:36:53.383Z,12.50
2018-12-03T12:39:34.054Z,12.50
2018-12-03T12:42:14.240Z,12.50
2018-12-03T12:44:54.508Z,12.40
2018-12-03T12:47:35.070Z,12.30
2018-12-03T12:50:15.734Z,12.30
2018-12-03T12:52:56.266Z,12.40
2018-12-03T12:55:36.761Z,12.50
2018-12-03T12:58:17.245Z,12.70
2018-12-03T13:00:57.515Z,12.80
2018-12-03T13:03:37.735Z,12.80
2018-12-03T13:06:18.455Z,12.90
2018-12-03T13:08:58.929Z,12.80
2018-12-03T13:11:39.222Z,12.80
2018-12-03T13:14:19.686Z,12.70
2018-12-03T13:16:59.805Z,12.60
2018-12-03T13:19:40.211Z,12.50
2018-12-03T13:22:20.887Z,12.20
2018-12-03T13:25:01.234Z,12.10
2018-12-03T13:27:41.662Z,12.00
2018-12-03T13:30:21.704Z,11.90
2018-12-03T13:33:02.482Z,12.00
2018-12-03T13:35:43.231Z,12.00
2018-12-03T13:38:23.769Z,12.30
2018-12-03T13:41:03.975Z,12.60
2018-12-03T13:43:44.173Z,12.40
2018-12-03T13:46:24.932Z,12.40
2018-12-03T13:49:05.494Z,12.40
2018-12-03T13:51:45.743Z,12.40
2018-12-03T13:54:25.720Z,12.40
2018-12-03T13:57:06.455Z,12.40
2018-12-03T13:59:47.158Z,12.50
2018-12-03T14:02:27.259Z,12.50
2018-12-03T14:05:07.835Z,12.40
2018-12-03T14:07:48.161Z,12.50
2018-12-03T14:10:28.204Z,12.30
2018-12-03T14:13:08.989Z,12.30
2018-12-03T14:15:37.309Z,12.30
2018-12-03T14:18:06.450Z,12.30
2018-12-03T14:20:33.915Z,12.30
2018-12-03T14:23:01.848Z,12.30
2018-12-03T14:25:29.385Z,12.30
2018-12-03T14:27:56.876Z,12.20
2018-12-03T14:30:24.419Z,12.20
2018-12-03T14:32:51.909Z,12.30
2018-12-03T14:35:19.376Z,12.40
2018-12-03T14:37:46.873Z,12.40
2018-12-03T14:40:14.339Z,12.30
2018-12-03T14:42:41.801Z,12.40
2018-12-03T14:45:09.786Z,12.30
2018-12-03T14:47:37.260Z,12.30
2018-12-03T14:50:05.910Z,12.20
2018-12-03T14:52:33.378Z,12.20
2018-12-03T14:55:00.896Z,12.20
2018-12-03T14:57:28.370Z,12.20
2018-12-03T14:59:55.861Z,12.20
2018-12-03T15:02:23.525Z,12.20
2018-12-03T15:04:51.002Z,12.10
2018-12-03T15:07:18.493Z,12.10
2018-12-03T15:09:45.961Z,11.90
2018-12-03T15:12:13.453Z,11.70
2018-12-03T15:14:40.922Z,11.60
2018-12-03T15:17:08.477Z,11.60
2018-12-03T15:19:36.301Z,11.60
2018-12-03T15:22:03.800Z,11.60
2018-12-03T15:24:31.357Z,11.50
2018-12-03T15:26:58.826Z,11.50
2018-12-03T15:29:26.318Z,11.50
2018-12-03T15:31:53.960Z,11.60
2018-12-03T15:34:21.469Z,11.50
2018-12-03T15:36:49.090Z,11.50
2018-12-03T15:39:16.558Z,11.40
2018-12-03T15:41:44.044Z,11.30
2018-12-03T15:44:11.508Z,11.40
2018-12-03T15:46:38.996Z,11.30
2018-12-03T15:49:06.460Z,11.30
2018-12-03T15:51:33.946Z,11.30
2018-12-03T15:54:01.412Z,11.30
2018-12-03T15:56:28.884Z,11.30
2018-12-03T15:58:56.373Z,11.30
2018-12-03T16:01:23.841Z,11.30
2018-12-03T16:03:51.638Z,11.30
2018-12-03T16:06:19.110Z,11.30
2018-12-03T16:08:46.593Z,11.30
2018-12-03T16:11:14.061Z,11.30
2018-12-03T16:13:41.562Z,11.30
2018-12-03T16:16:09.057Z,11.30
2018-12-03T16:18:36.594Z,11.30
2018-12-03T16:21:04.068Z,11.40
2018-12-03T16:23:31.536Z,11.40
2018-12-03T16:25:59.017Z,11.30
2018-12-03T16:28:26.491Z,11.40
2018-12-03T16:30:53.980Z,11.30
2018-12-03T16:33:21.448Z,11.40
2018-12-03T16:35:48.989Z,11.40
2018-12-03T16:38:16.553Z,11.40
2018-12-03T16:40:44.026Z,11.50
2018-12-03T16:43:11.509Z,11.50
2018-12-03T16:45:38.970Z,11.50
2018-12-03T16:48:06.470Z,11.40
2018-12-03T16:50:33.938Z,11.30
2018-12-03T16:53:01.404Z,11.20
2018-12-03T16:55:29.345Z,11.20
2018-12-03T16:57:56.818Z,11.20
2018-12-03T17:00:24.297Z,11.30
2018-12-03T17:02:51.809Z,11.40
2018-12-03T17:05:19.468Z,11.30
2018-12-03T17:07:46.942Z,11.40
2018-12-03T17:10:14.442Z,11.30
2018-12-03T17:12:42.013Z,11.30
2018-12-03T17:15:09.556Z,11.40
2018-12-03T17:17:37.050Z,11.30
2018-12-03T17:20:07.581Z,11.40
2018-12-03T17:22:35.081Z,11.50
2018-12-03T17:25:02.698Z,11.40
2018-12-03T17:27:30.257Z,11.40
2018-12-03T17:29:57.794Z,11.40
2018-12-03T17:32:25.287Z,11.50
2018-12-03T17:34:52.754Z,11.50
2018-12-03T17:37:20.309Z,11.50
2018-12-03T17:39:47.871Z,11.60
2018-12-03T17:42:15.338Z,11.60
2018-12-03T17:44:42.859Z,11.60
2018-12-03T17:47:10.321Z,11.70
2018-12-03T17:49:37.817Z,11.80
2018-12-03T17:52:05.358Z,11.80
2018-12-03T17:54:32.871Z,11.80
2018-12-03T17:57:00.340Z,11.80
2018-12-03T17:59:27.814Z,11.70
2018-12-03T18:01:55.309Z,11.80
2018-12-03T18:04:22.853Z,11.70
2018-12-03T18:06:50.354Z,11.70
2018-12-03T18:09:17.835Z,11.70
2018-12-03T18:11:45.405Z,11.70
2018-12-03T18:14:13.334Z,11.70
2018-12-03T18:16:41.188Z,11.70
2018-12-03T18:19:08.649Z,11.70
2018-12-03T18:21:36.148Z,11.70
2018-12-03T18:24:03.731Z,11.70
2018-12-03T18:26:31.307Z,11.70
2018-12-03T18:28:58.891Z,11.70
2018-12-03T18:31:26.374Z,11.70
2018-12-03T18:33:53.869Z,11.70
2018-12-03T18:36:21.344Z,11.60
2018-12-03T18:38:48.846Z,11.60
2018-12-03T18:41:16.333Z,11.60
2018-12-03T18:43:43.818Z,11.60
2018-12-03T18:46:11.321Z,11.60
2018-12-03T18:48:38.792Z,11.50
2018-12-03T18:51:06.290Z,11.50
2018-12-03T18:53:33.772Z,11.50
2018-12-03T18:56:01.409Z,11.50
2018-12-03T18:58:29.202Z,11.60
2018-12-03T19:00:56.790Z,11.60
2018-12-03T19:03:24.414Z,11.50
2018-12-03T19:05:51.914Z,11.50
2018-12-03T19:08:19.377Z,11.50
2018-12-03T19:10:46.863Z,11.50
2018-12-03T19:13:16.871Z,11.50
2018-12-03T19:15:44.405Z,11.50
2018-12-03T19:18:11.893Z,11.60
2018-12-03T19:20:39.363Z,11.60
2018-12-03T19:23:06.877Z,11.60
2018-12-03T19:25:34.353Z,11.50
2018-12-03T19:28:02.120Z,11.60
2018-12-03T19:30:29.660Z,11.60
2018-12-03T19:32:57.157Z,11.50
2018-12-03T19:35:24.666Z,11.50
2018-12-03T19:37:52.216Z,11.50
2018-12-03T19:40:19.732Z,11.60
2018-12-03T19:42:47.296Z,11.50
2018-12-03T19:45:14.809Z,11.50
2018-12-03T19:47:42.363Z,11.50
2018-12-03T19:50:10.023Z,11.40
2018-12-03T19:52:37.622Z,11.40
2018-12-03T19:55:07.229Z,11.40
2018-12-03T19:57:34.805Z,11.30
2018-12-03T20:00:02.379Z,11.30
2018-12-03T20:02:29.977Z,11.30
2018-12-03T20:04:59.409Z,11.20
2018-12-03T20:07:26.941Z,11.20
2018-12-03T20:09:54.507Z,11.10
2018-12-03T20:12:22.069Z,11.10
2018-12-03T20:15:09.333Z,11.10
2018-12-03T20:17:56.497Z,11.10
2018-12-03T20:20:43.716Z,11.20
2018-12-03T20:23:30.948Z,11.20
2018-12-03T20:26:18.276Z,9.50
2018-12-03T20:29:05.616Z,11.20
2018-12-03T20:32:14.054Z,11.10
2018-12-03T20:35:01.280Z,11.00
2018-12-03T20:37:48.505Z,11.00
2018-12-03T20:40:35.862Z,11.10
2018-12-03T20:43:23.078Z,11.20
2018-12-03T20:46:10.467Z,11.10
2018-12-03T20:48:57.749Z,9.90
2018-12-03T20:51:44.913Z,11.00
2018-12-03T20:54:32.069Z,11.00
2018-12-03T20:57:19.282Z,11.00
2018-12-03T21:00:27.799Z,11.00
2018-12-03T21:03:14.966Z,11.00
2018-12-03T21:06:02.113Z,11.00
2018-12-03T21:08:49.279Z,10.90
2018-12-03T21:11:36.627Z,10.90
2018-12-03T21:14:24.277Z,10.80
2018-12-03T21:17:11.501Z,10.80
2018-12-03T21:19:58.819Z,10.70
2018-12-03T21:22:59.862Z,10.80
2018-12-03T21:25:35.262Z,10.80
2018-12-03T21:28:22.896Z,10.60
2018-12-03T21:31:10.481Z,10.70
2018-12-03T21:34:09.423Z,10.70
2018-12-03T21:36:46.946Z,10.80
2018-12-03T21:39:14.417Z,10.80
2018-12-03T21:41:41.924Z,10.80
2018-12-03T21:44:09.486Z,10.70
2018-12-03T21:46:37.123Z,10.60
2018-12-03T21:49:05.022Z,10.60
2018-12-03T21:51:32.501Z,10.70
2018-12-03T21:54:00.341Z,10.70
2018-12-03T21:56:27.818Z,10.70
2018-12-03T21:58:55.312Z,10.60
2018-12-03T22:01:22.772Z,10.60
2018-12-03T22:03:50.273Z,10.70
2018-12-03T22:06:17.819Z,10.70
2018-12-03T22:08:45.624Z,10.70
2018-12-03T22:11:13.558Z,10.70
2018-12-03T22:13:41.342Z,10.70
2018-12-03T22:16:11.814Z,10.70
2018-12-03T22:18:39.278Z,10.70
2018-12-03T22:21:07.079Z,10.70
2018-12-03T22:23:34.551Z,10.70
2018-12-03T22:26:02.054Z,10.60
2018-12-03T22:28:29.537Z,10.40
2018-12-03T22:30:57.005Z,10.40
2018-12-03T22:33:24.496Z,10.50
2018-12-03T22:36:29.997Z,10.50
2018-12-03T22:38:57.476Z,10.60
2018-12-03T22:41:24.934Z,10.60
2018-12-03T22:43:52.704Z,10.60
2018-12-03T22:46:20.178Z,10.60
2018-12-03T22:48:47.681Z,10.50
2018-12-03T22:51:15.146Z,10.50
2018-12-03T22:53:42.624Z,10.60
2018-12-03T22:56:10.116Z,10.60
2018-12-03T22:58:37.585Z,10.60
2018-12-03T23:01:06.407Z,10.50
2018-12-03T23:03:33.896Z,10.50
2018-12-03T23:06:01.388Z,10.50
2018-12-03T23:08:29.777Z,10.40
2018-12-03T23:10:57.272Z,10.50
2018-12-03T23:13:24.746Z,10.40
2018-12-03T23:15:52.224Z,10.40
2018-12-03T23:18:19.789Z,10.30
2018-12-03T23:20:47.251Z,10.20
2018-12-03T23:23:14.738Z,10.00
2018-12-03T23:25:42.191Z,9.90
2018-12-03T23:28:09.680Z,9.80
2018-12-03T23:30:37.148Z,9.80
2018-12-03T23:33:04.604Z,9.70
2018-12-03T23:35:33.103Z,9.70
2018-12-03T23:38:00.660Z,9.70
2018-12-03T23:40:28.148Z,9.70
2018-12-03T23:42:55.605Z,9.70
2018-12-03T23:45:25.084Z,9.70
2018-12-03T23:47:52.544Z,9.70
2018-12-03T23:50:19.995Z,9.70
2018-12-03T23:52:47.484Z,9.80
2018-12-03T23:55:14.945Z,9.70
2018-12-03T23:57:42.423Z,9.70
